Time;durP1;ratioP1;P1;durP2;ratioP2;P2;SDS_P1;SDS_P2;PMS_P1;PMS_P2;Temp;Humidity;BMP_temperature;BMP_pressure;BME280_temperature;BME280_humidity;BME280_pressure;Samples;Min_cycle;Max_cycle;Signal;HPM_P1;HPM_P2
2022/09/15 00:00:07;;;;;;;28.13;14.55;;;12.30;99.90;;;;;;4966671;28;20023;-77
2022/09/15 00:02:32;;;;;;;16.38;10.70;;;12.30;99.90;;;;;;4961120;28;20089;-77
2022/09/15 00:04:58;;;;;;;14.30;7.93;;;12.30;99.90;;;;;;4962311;28;20486;-77
2022/09/15 00:07:23;;;;;;;25.25;14.30;;;12.40;99.90;;;;;;4949101;28;20514;-77
2022/09/15 00:09:49;;;;;;;25.77;14.10;;;12.40;99.90;;;;;;4960494;28;20525;-77
2022/09/15 00:12:15;;;;;;;13.50;8.68;;;12.50;99.90;;;;;;4960186;28;20458;-77
2022/09/15 00:14:40;;;;;;;28.42;14.52;;;12.40;99.90;;;;;;4962918;28;20557;-77
2022/09/15 00:17:06;;;;;;;24.27;11.65;;;12.40;99.90;;;;;;4964209;28;20045;-77
2022/09/15 00:19:31;;;;;;;11.77;8.48;;;12.30;99.90;;;;;;4949012;28;20039;-77
2022/09/15 00:21:57;;;;;;;23.30;13.70;;;12.40;99.90;;;;;;4959245;28;20038;-77
2022/09/15 00:24:22;;;;;;;22.70;12.57;;;12.30;99.90;;;;;;4944829;28;20061;-77
2022/09/15 00:26:48;;;;;;;24.27;14.98;;;12.20;99.90;;;;;;4965239;28;20562;-77
2022/09/15 00:29:13;;;;;;;21.33;10.88;;;12.30;99.90;;;;;;4948603;28;20090;-77
2022/09/15 00:31:39;;;;;;;13.18;8.70;;;12.10;99.90;;;;;;4949163;28;20035;-77
2022/09/15 00:34:05;;;;;;;18.85;10.75;;;12.10;99.90;;;;;;4946335;28;20399;-78
2022/09/15 00:36:31;;;;;;;17.10;10.73;;;12.10;99.90;;;;;;4963929;28;20043;-78
2022/09/15 00:38:58;;;;;;;22.42;14.00;;;12.20;99.90;;;;;;4946430;28;20027;-79
2022/09/15 00:41:23;;;;;;;17.50;11.15;;;12.10;99.90;;;;;;4961931;28;20479;-78
2022/09/15 00:43:55;;;;;;;15.88;11.35;;;12.10;99.90;;;;;;4949209;28;20086;-78
2022/09/15 00:46:34;;;;;;;18.65;11.23;;;12.10;99.90;;;;;;4960818;28;20563;-78
2022/09/15 00:49:08;;;;;;;15.00;10.07;;;12.10;99.90;;;;;;4959890;28;20046;-78
2022/09/15 00:52:05;;;;;;;13.93;8.13;;;12.00;99.90;;;;;;4973325;28;20408;-78
2022/09/15 00:54:34;;;;;;;;;;;12.10;99.90;;;;;;4929508;28;20411;-78
2022/09/15 00:57:01;;;;;;;17.52;9.02;;;12.30;99.90;;;;;;4925809;28;19918;-79
2022/09/15 00:59:28;;;;;;;11.85;7.93;;;12.20;99.90;;;;;;4925278;28;20046;-78
2022/09/15 01:01:58;;;;;;;11.57;7.95;;;12.10;99.90;;;;;;4919722;28;20415;-78
2022/09/15 01:04:24;;;;;;;48.45;11.88;;;12.20;99.90;;;;;;4929641;28;20109;-78
2022/09/15 01:06:52;;;;;;;85.10;10.63;;;12.10;99.90;;;;;;4929924;28;20119;-78
2022/09/15 01:09:27;;;;;;;50.90;9.13;;;12.00;99.90;;;;;;4938215;28;20506;-78
2022/09/15 01:11:52;;;;;;;261.42;17.63;;;12.10;99.90;;;;;;4948438;28;20030;-78
2022/09/15 01:14:18;;;;;;;41.30;9.13;;;12.00;99.90;;;;;;4944457;28;20558;-78
2022/09/15 01:17:14;;;;;;;78.80;9.18;;;12.10;99.90;;;;;;4960319;28;20031;-78
2022/09/15 01:19:54;;;;;;;111.55;11.50;;;12.20;99.90;;;;;;4954929;28;20035;-78
2022/09/15 01:23:04;;;;;;;174.38;11.10;;;12.20;99.90;;;;;;4954281;28;20069;-78
2022/09/15 01:26:01;;;;;;;48.53;7.43;;;12.20;99.90;;;;;;4944654;28;20059;-78
2022/09/15 01:28:45;;;;;;;10.75;7.25;;;12.20;99.90;;;;;;4955830;28;20807;-78
2022/09/15 01:33:02;;;;;;;323.73;16.98;;;12.10;99.90;;;;;;4959461;28;20408;-78
2022/09/15 01:34:32;;;;;;;198.65;14.07;;;12.10;99.90;;;;;;4957269;28;20043;-77
2022/09/15 01:37:01;;;;;;;255.60;16.63;;;12.00;99.90;;;;;;4974796;28;20026;-77
2022/09/15 01:39:32;;;;;;;26.05;8.88;;;11.90;99.90;;;;;;4942848;28;20534;-77
2022/09/15 01:42:08;;;;;;;23.58;9.77;;;11.90;99.90;;;;;;4946316;28;20696;-77
2022/09/15 01:44:41;;;;;;;166.43;15.23;;;11.90;99.90;;;;;;4951028;28;20061;-78
2022/09/15 01:47:08;;;;;;;105.57;17.50;;;11.90;99.90;;;;;;4961131;28;20122;-78
2022/09/15 01:49:43;;;;;;;301.40;20.30;;;11.90;99.90;;;;;;4961500;28;20046;-77
2022/09/15 01:52:09;;;;;;;363.95;22.48;;;11.90;99.90;;;;;;4948558;28;20094;-78
2022/09/15 01:54:38;;;;;;;273.00;19.08;;;11.90;99.90;;;;;;4956662;28;20035;-78
2022/09/15 01:57:04;;;;;;;264.20;19.65;;;12.00;99.90;;;;;;4948476;28;20431;-78
2022/09/15 01:59:29;;;;;;;160.50;14.95;;;12.00;99.90;;;;;;4973827;28;20062;-78
2022/09/15 02:02:03;;;;;;;207.35;16.55;;;11.90;99.90;;;;;;4958879;28;20087;-78
2022/09/15 02:04:32;;;;;;;262.55;18.02;;;11.70;99.90;;;;;;4947205;28;20027;-78
2022/09/15 02:07:10;;;;;;;380.45;20.95;;;11.70;99.90;;;;;;4942618;28;20133;-78
2022/09/15 02:09:53;;;;;;;644.13;27.15;;;11.70;99.90;;;;;;4960817;28;20047;-78
2022/09/15 02:12:32;;;;;;;348.38;21.83;;;11.70;99.90;;;;;;4947601;28;20110;-77
2022/09/15 02:15:07;;;;;;;375.65;21.08;;;11.60;99.90;;;;;;4960581;28;20402;-77
2022/09/15 02:17:41;;;;;;;545.10;28.70;;;11.60;99.90;;;;;;4961481;28;20109;-77
2022/09/15 02:20:07;;;;;;;77.72;12.52;;;11.60;99.90;;;;;;4946941;28;20084;-77
2022/09/15 02:22:33;;;;;;;124.22;14.30;;;11.80;99.90;;;;;;4954423;28;20046;-77
2022/09/15 02:25:13;;;;;;;12.32;8.35;;;11.80;99.90;;;;;;4944117;28;20407;-78
2022/09/15 02:27:51;;;;;;;168.98;17.63;;;11.90;99.90;;;;;;4956703;28;20035;-78
2022/09/15 02:30:18;;;;;;;190.73;17.42;;;11.90;99.90;;;;;;4945517;28;20042;-77
2022/09/15 02:32:55;;;;;;;336.05;25.55;;;11.80;99.90;;;;;;4941484;28;20030;-77
2022/09/15 02:35:22;;;;;;;19.65;12.35;;;11.80;99.90;;;;;;4961259;28;20450;-78
2022/09/15 02:37:47;;;;;;;76.40;18.05;;;11.80;99.90;;;;;;4957446;28;20539;-77
2022/09/15 02:40:13;;;;;;;174.02;19.50;;;11.90;99.90;;;;;;4946183;28;20055;-77
2022/09/15 02:42:39;;;;;;;67.70;16.73;;;11.90;99.90;;;;;;4972280;28;20364;-78
2022/09/15 02:45:05;;;;;;;118.25;17.40;;;12.00;99.90;;;;;;4942250;28;20038;-77
2022/09/15 02:47:30;;;;;;;17.02;10.90;;;11.90;99.90;;;;;;4959919;28;20046;-77
2022/09/15 02:49:56;;;;;;;20.45;10.50;;;12.00;99.90;;;;;;4969920;28;20486;-77
2022/09/15 02:52:22;;;;;;;113.65;21.77;;;12.00;99.90;;;;;;4942020;28;20451;-77
2022/09/15 02:54:49;;;;;;;54.17;19.50;;;12.00;99.90;;;;;;4959509;28;20511;-77
2022/09/15 02:57:15;;;;;;;40.65;21.80;;;11.90;99.90;;;;;;4958302;28;20396;-77
2022/09/15 03:02:25;;;;;;;26.25;15.18;;;11.80;99.90;;;;;;4961551;28;20094;-78
2022/09/15 03:04:51;;;;;;;26.58;14.73;;;11.80;99.90;;;;;;4959992;28;20037;-77
2022/09/15 03:07:17;;;;;;;30.90;16.52;;;11.90;99.90;;;;;;4943792;28;20043;-77
2022/09/15 03:09:42;;;;;;;21.55;13.25;;;11.90;99.90;;;;;;4939586;28;20488;-77
2022/09/15 03:12:08;;;;;;;18.38;11.68;;;11.80;99.90;;;;;;4955441;28;20049;-77
2022/09/15 03:14:34;;;;;;;21.30;12.75;;;11.90;99.90;;;;;;4962681;28;20050;-77
2022/09/15 03:17:00;;;;;;;20.35;12.63;;;12.10;99.90;;;;;;4947965;28;20479;-77
2022/09/15 03:19:26;;;;;;;23.15;13.35;;;12.00;99.90;;;;;;4946813;28;20162;-77
2022/09/15 03:21:51;;;;;;;30.17;17.15;;;12.00;99.90;;;;;;4956597;28;20542;-77
2022/09/15 03:24:18;;;;;;;20.67;13.55;;;12.00;99.90;;;;;;4968175;28;20435;-77
2022/09/15 03:26:44;;;;;;;20.75;11.77;;;12.00;99.90;;;;;;4972423;28;20195;-77
2022/09/15 03:29:09;;;;;;;20.95;13.48;;;11.90;99.90;;;;;;4961282;28;20082;-79
2022/09/15 03:31:35;;;;;;;34.92;20.40;;;12.00;99.90;;;;;;4962294;28;20075;-78
2022/09/15 03:34:00;;;;;;;26.95;15.63;;;12.00;99.90;;;;;;4972221;28;20026;-78
2022/09/15 03:36:26;;;;;;;23.40;13.82;;;12.00;99.90;;;;;;4960817;28;20026;-78
2022/09/15 03:38:52;;;;;;;22.50;12.63;;;12.10;99.90;;;;;;4975184;28;20039;-78
2022/09/15 03:41:17;;;;;;;21.98;12.45;;;12.20;99.90;;;;;;4958106;28;20030;-78
2022/09/15 03:43:43;;;;;;;23.38;14.23;;;12.10;99.90;;;;;;4962145;28;20031;-78
2022/09/15 03:46:10;;;;;;;32.05;17.00;;;12.10;99.90;;;;;;4941907;28;20502;-78
2022/09/15 03:48:36;;;;;;;21.55;13.38;;;12.10;99.90;;;;;;4944616;28;20027;-78
2022/09/15 03:51:02;;;;;;;35.90;20.48;;;12.10;99.90;;;;;;4963265;28;20041;-78
2022/09/15 03:53:33;;;;;;;16.92;11.52;;;12.20;99.90;;;;;;4946874;28;20042;-78
2022/09/15 03:56:17;;;;;;;15.32;10.65;;;12.20;99.90;;;;;;4941168;28;20857;-78
2022/09/15 03:58:42;;;;;;;16.75;9.85;;;12.30;99.90;;;;;;4930050;28;20491;-78
2022/09/15 04:01:08;;;;;;;19.27;11.75;;;12.30;99.90;;;;;;4944698;28;20038;-78
2022/09/15 04:03:35;;;;;;;25.27;15.52;;;12.40;99.90;;;;;;4961051;28;20030;-78
2022/09/15 04:06:00;;;;;;;25.10;14.20;;;12.50;99.90;;;;;;4972714;28;20034;-78
2022/09/15 04:08:26;;;;;;;26.90;15.13;;;12.40;99.90;;;;;;4974193;28;20030;-78
2022/09/15 04:10:53;;;;;;;21.50;13.23;;;12.40;99.90;;;;;;4956808;28;20043;-78
2022/09/15 04:13:19;;;;;;;19.88;12.70;;;12.40;99.90;;;;;;4960379;28;20039;-78
2022/09/15 04:15:45;;;;;;;17.98;11.07;;;12.40;99.90;;;;;;4944319;28;20451;-78
2022/09/15 04:18:10;;;;;;;16.52;11.27;;;12.40;99.90;;;;;;4942734;28;20454;-78
2022/09/15 04:20:38;;;;;;;18.15;12.23;;;12.50;99.90;;;;;;4960542;28;20043;-78
2022/09/15 04:23:04;;;;;;;17.80;10.95;;;12.40;99.90;;;;;;4963129;28;20039;-77
2022/09/15 04:25:29;;;;;;;25.05;14.10;;;12.40;99.90;;;;;;4949812;28;20034;-78
2022/09/15 04:27:56;;;;;;;23.65;12.90;;;12.40;99.90;;;;;;4949250;28;20043;-79
2022/09/15 04:30:21;;;;;;;24.27;14.55;;;12.40;99.90;;;;;;4945890;28;20566;-78
2022/09/15 04:32:47;;;;;;;15.18;10.18;;;12.40;99.90;;;;;;4965249;28;20047;-78
2022/09/15 04:35:13;;;;;;;25.33;15.80;;;12.40;99.90;;;;;;4949054;28;20539;-78
2022/09/15 04:37:38;;;;;;;29.52;15.55;;;12.40;99.90;;;;;;4945946;28;20030;-78
2022/09/15 04:40:04;;;;;;;29.17;16.88;;;12.40;99.90;;;;;;4961389;28;20033;-78
2022/09/15 04:42:30;;;;;;;24.65;15.02;;;12.50;99.90;;;;;;4961035;28;20035;-78
2022/09/15 04:44:56;;;;;;;17.08;10.25;;;12.50;99.90;;;;;;4966553;28;20169;-78
2022/09/15 04:47:21;;;;;;;23.40;15.95;;;12.40;99.90;;;;;;4959410;28;20035;-78
2022/09/15 04:49:47;;;;;;;19.42;12.73;;;12.50;99.90;;;;;;4939264;28;20035;-78
2022/09/15 04:52:12;;;;;;;19.17;12.10;;;12.40;99.90;;;;;;4962704;28;20203;-78
2022/09/15 04:54:38;;;;;;;23.48;14.70;;;12.50;99.90;;;;;;4947694;28;20035;-78
2022/09/15 04:57:03;;;;;;;25.23;13.60;;;12.50;99.90;;;;;;4949268;28;20046;-78
2022/09/15 04:59:29;;;;;;;23.25;14.25;;;12.50;99.90;;;;;;4947934;28;20062;-79
2022/09/15 05:01:55;;;;;;;14.82;10.75;;;12.50;99.90;;;;;;4956308;28;20094;-79
2022/09/15 05:04:20;;;;;;;15.80;10.30;;;12.50;99.90;;;;;;4948166;28;20113;-78
2022/09/15 05:06:46;;;;;;;28.30;16.98;;;12.50;99.90;;;;;;4931039;28;20090;-78
2022/09/15 05:09:12;;;;;;;20.05;11.63;;;12.50;99.90;;;;;;4958109;28;20058;-78
2022/09/15 05:11:37;;;;;;;22.27;14.02;;;12.60;99.90;;;;;;4949446;28;20055;-78
2022/09/15 05:14:03;;;;;;;22.70;12.55;;;12.60;99.90;;;;;;4963647;28;20569;-78
2022/09/15 05:16:29;;;;;;;22.20;13.85;;;12.60;99.90;;;;;;4949686;28;20034;-78
2022/09/15 05:18:56;;;;;;;28.70;16.23;;;12.60;99.90;;;;;;4964180;28;20035;-78
2022/09/15 05:21:22;;;;;;;19.23;11.18;;;12.60;99.90;;;;;;4962886;28;20038;-78
2022/09/15 05:23:47;;;;;;;14.93;9.40;;;12.60;99.90;;;;;;4956850;28;20031;-78
2022/09/15 05:26:15;;;;;;;17.98;10.80;;;12.70;99.90;;;;;;4930660;28;20355;-79
2022/09/15 05:28:42;;;;;;;15.70;8.48;;;12.70;99.90;;;;;;4959434;28;20038;-78
2022/09/15 05:31:12;;;;;;;15.75;10.13;;;12.60;99.90;;;;;;4947064;28;20035;-79
2022/09/15 05:33:38;;;;;;;16.63;8.75;;;12.70;99.90;;;;;;4943186;28;20035;-78
2022/09/15 05:36:03;;;;;;;12.68;8.82;;;12.70;99.90;;;;;;4963603;28;20043;-77
2022/09/15 05:38:30;;;;;;;12.77;7.60;;;12.70;99.90;;;;;;4956197;28;20093;-78
2022/09/15 05:41:11;;;;;;;11.32;8.13;;;12.80;99.90;;;;;;4924616;28;21830;-78
2022/09/15 05:43:37;;;;;;;17.02;10.40;;;12.80;99.90;;;;;;4945632;28;20552;-78
2022/09/15 05:46:03;;;;;;;19.73;12.82;;;12.80;99.90;;;;;;4943665;28;20126;-78
2022/09/15 05:48:29;;;;;;;13.88;8.85;;;12.90;99.90;;;;;;4963264;28;20038;-78
2022/09/15 05:50:55;;;;;;;18.48;10.35;;;12.90;99.90;;;;;;4958739;28;20138;-78
2022/09/15 05:53:20;;;;;;;17.88;10.88;;;12.90;99.90;;;;;;4959242;28;20034;-78
2022/09/15 05:55:46;;;;;;;23.65;14.38;;;12.90;99.90;;;;;;4945629;28;20053;-78
2022/09/15 05:58:12;;;;;;;29.52;16.70;;;12.90;99.90;;;;;;4944683;28;20035;-78
2022/09/15 06:00:37;;;;;;;28.48;15.82;;;13.00;99.90;;;;;;4947820;28;20607;-78
2022/09/15 06:03:03;;;;;;;25.35;14.30;;;13.00;99.90;;;;;;4962057;28;20030;-78
2022/09/15 06:05:28;;;;;;;15.00;10.15;;;13.00;99.90;;;;;;4956188;28;20045;-78
2022/09/15 06:07:54;;;;;;;17.92;11.10;;;13.10;99.90;;;;;;4961990;28;20049;-78
2022/09/15 06:10:24;;;;;;;12.80;8.50;;;13.10;99.90;;;;;;4957374;28;20114;-78
2022/09/15 06:12:53;;;;;;;14.48;8.73;;;13.10;99.90;;;;;;4940691;28;20118;-78
2022/09/15 06:15:20;;;;;;;16.08;10.20;;;13.20;99.90;;;;;;4965142;28;20062;-79
2022/09/15 06:17:45;;;;;;;21.08;10.73;;;13.20;99.90;;;;;;4958602;28;20034;-78
2022/09/15 06:20:11;;;;;;;15.30;8.70;;;13.30;99.90;;;;;;4944104;28;20049;-78
2022/09/15 06:22:37;;;;;;;23.20;14.98;;;13.30;99.90;;;;;;4946079;28;20065;-78
2022/09/15 06:25:03;;;;;;;19.90;11.40;;;13.30;99.90;;;;;;4945929;28;20418;-78
2022/09/15 06:27:28;;;;;;;30.42;17.00;;;13.30;99.90;;;;;;4956027;28;20399;-78
2022/09/15 06:29:54;;;;;;;20.15;13.48;;;13.40;99.90;;;;;;4947222;28;20039;-79
2022/09/15 06:32:19;;;;;;;14.07;9.73;;;13.40;99.90;;;;;;4961277;28;20027;-78
2022/09/15 06:34:45;;;;;;;16.75;10.65;;;13.40;99.90;;;;;;4926036;28;20074;-79
2022/09/15 06:37:10;;;;;;;13.70;9.98;;;13.50;99.90;;;;;;4957659;28;20026;-78
2022/09/15 06:39:36;;;;;;;14.65;9.02;;;13.50;99.90;;;;;;4956006;28;20055;-78
2022/09/15 06:42:02;;;;;;;26.23;14.32;;;13.60;99.90;;;;;;4946590;28;20046;-78
2022/09/15 06:44:28;;;;;;;21.52;13.82;;;13.60;99.90;;;;;;4943065;28;20033;-79
2022/09/15 06:46:53;;;;;;;27.92;16.95;;;13.60;99.90;;;;;;4964200;28;20114;-78
2022/09/15 06:49:20;;;;;;;27.25;16.30;;;13.60;99.90;;;;;;4943242;28;20023;-79
2022/09/15 06:51:46;;;;;;;19.95;11.80;;;13.70;99.90;;;;;;4957059;28;20054;-79
2022/09/15 06:54:14;;;;;;;20.27;11.18;;;13.80;99.90;;;;;;4960436;28;20042;-79
2022/09/15 06:56:40;;;;;;;24.95;14.48;;;13.80;99.90;;;;;;4971063;28;20027;-79
2022/09/15 06:59:12;;;;;;;20.35;12.73;;;13.80;99.90;;;;;;4961112;28;20023;-79
2022/09/15 07:01:38;;;;;;;14.25;9.35;;;13.90;99.90;;;;;;4944074;28;20028;-79
2022/09/15 07:04:04;;;;;;;23.85;14.93;;;13.90;99.90;;;;;;4947352;28;20082;-78
2022/09/15 07:06:31;;;;;;;14.52;9.93;;;14.00;99.90;;;;;;4974492;28;20027;-79
2022/09/15 07:08:57;;;;;;;18.38;11.02;;;14.00;99.90;;;;;;4928522;28;20023;-79
2022/09/15 07:11:25;;;;;;;25.23;16.65;;;14.00;99.90;;;;;;4956043;28;20116;-79
2022/09/15 07:13:51;;;;;;;13.23;8.02;;;14.10;99.90;;;;;;4943077;28;21104;-79
2022/09/15 07:16:17;;;;;;;16.10;10.88;;;14.20;99.90;;;;;;4963680;28;20035;-79
2022/09/15 07:18:43;;;;;;;9.60;6.32;;;14.30;99.90;;;;;;4944865;28;20439;-78
2022/09/15 07:21:13;;;;;;;8.48;6.90;;;14.30;99.90;;;;;;4959770;28;20035;-79
2022/09/15 07:23:39;;;;;;;14.32;8.07;;;14.40;99.90;;;;;;4948355;28;20038;-78
2022/09/15 07:26:08;;;;;;;7.00;5.53;;;14.40;99.90;;;;;;4943434;28;20031;-79
2022/09/15 07:28:34;;;;;;;14.20;9.40;;;14.50;99.90;;;;;;4957405;28;20031;-79
2022/09/15 07:31:00;;;;;;;8.55;6.13;;;14.50;99.90;;;;;;4930713;28;20035;-79
2022/09/15 07:33:25;;;;;;;12.00;5.95;;;14.60;99.90;;;;;;4941655;28;20039;-78
2022/09/15 07:35:51;;;;;;;16.75;10.20;;;14.70;99.90;;;;;;4945037;28;20062;-79
2022/09/15 07:38:16;;;;;;;11.05;7.53;;;14.70;99.90;;;;;;4956948;28;20027;-78
2022/09/15 07:40:42;;;;;;;23.45;15.73;;;14.80;99.90;;;;;;4927428;28;20061;-78
2022/09/15 07:43:08;;;;;;;10.80;7.65;;;15.00;99.90;;;;;;4962950;28;20038;-79
2022/09/15 07:45:34;;;;;;;10.15;6.18;;;15.10;99.90;;;;;;4930736;28;20050;-79
2022/09/15 07:48:00;;;;;;;11.45;6.95;;;15.20;99.90;;;;;;4942730;28;20054;-79
2022/09/15 07:50:25;;;;;;;11.05;7.45;;;15.40;99.90;;;;;;4944831;28;20478;-79
2022/09/15 07:52:54;;;;;;;13.30;8.95;;;15.60;99.90;;;;;;4957713;28;20491;-79
2022/09/15 07:55:20;;;;;;;19.88;10.35;;;15.80;99.90;;;;;;4944599;28;20518;-79
2022/09/15 07:57:45;;;;;;;11.05;7.60;;;16.00;99.90;;;;;;4962430;28;20070;-79
2022/09/15 08:00:13;;;;;;;9.98;6.35;;;16.10;99.90;;;;;;4945082;28;20031;-79
2022/09/15 08:02:39;;;;;;;8.73;5.70;;;16.10;99.90;;;;;;4947890;28;20042;-79
2022/09/15 08:05:05;;;;;;;6.43;4.75;;;16.20;99.90;;;;;;4963882;28;20027;-79
2022/09/15 08:07:31;;;;;;;11.60;7.10;;;16.30;99.90;;;;;;4965130;28;20118;-79
2022/09/15 08:09:56;;;;;;;16.52;10.02;;;16.50;99.90;;;;;;4943981;28;20216;-79
2022/09/15 08:12:22;;;;;;;14.07;7.70;;;16.70;99.90;;;;;;4962523;28;20126;-78
2022/09/15 08:14:47;;;;;;;12.30;6.43;;;17.10;99.90;;;;;;4943640;28;20063;-79
2022/09/15 08:17:14;;;;;;;13.63;8.38;;;17.00;99.90;;;;;;4937653;28;20023;-78
2022/09/15 08:19:40;;;;;;;13.90;8.68;;;17.10;99.90;;;;;;4945939;28;20046;-79
2022/09/15 08:22:05;;;;;;;10.38;5.68;;;17.30;99.90;;;;;;4963043;28;20038;-80
2022/09/15 08:24:31;;;;;;;12.02;6.75;;;17.40;99.90;;;;;;4961518;28;20027;-79
2022/09/15 08:26:57;;;;;;;10.07;5.28;;;17.40;99.90;;;;;;4963038;28;20035;-78
2022/09/15 08:29:22;;;;;;;11.25;6.85;;;17.80;99.90;;;;;;4941890;28;20051;-79
2022/09/15 08:31:48;;;;;;;15.40;7.78;;;17.90;99.90;;;;;;4946847;28;20126;-78
2022/09/15 08:34:15;;;;;;;13.25;5.82;;;18.10;99.90;;;;;;4964986;28;20027;-78
2022/09/15 08:36:40;;;;;;;8.07;4.90;;;18.10;99.90;;;;;;4961929;28;20607;-78
2022/09/15 08:39:06;;;;;;;8.07;6.20;;;18.30;99.90;;;;;;4964460;28;20478;-78
2022/09/15 08:41:40;;;;;;;10.70;6.20;;;18.40;99.90;;;;;;4959644;28;20027;-78
2022/09/15 08:44:32;;;;;;;8.73;6.22;;;18.60;99.90;;;;;;4928166;28;20035;-79
2022/09/15 08:47:22;;;;;;;14.15;7.40;;;18.80;99.90;;;;;;4961906;28;20031;-79
2022/09/15 08:49:54;;;;;;;10.07;5.25;;;19.00;99.90;;;;;;4962572;28;20042;-78
2022/09/15 08:52:41;;;;;;;12.93;6.47;;;19.10;99.90;;;;;;4960635;28;20038;-79
2022/09/15 08:55:36;;;;;;;11.50;5.78;;;19.10;99.90;;;;;;4960854;28;20525;-79
2022/09/15 08:58:02;;;;;;;10.65;5.25;;;19.40;99.90;;;;;;4958879;28;20094;-79
2022/09/15 09:00:28;;;;;;;7.65;5.30;;;19.50;99.90;;;;;;4961192;28;20546;-80
2022/09/15 09:03:21;;;;;;;11.80;6.95;;;19.50;99.90;;;;;;4958039;28;20063;-79
2022/09/15 09:05:54;;;;;;;12.27;6.63;;;19.50;99.90;;;;;;4958717;28;20484;-79
2022/09/15 09:08:26;;;;;;;12.35;5.68;;;19.80;99.90;;;;;;4943042;28;20045;-79
2022/09/15 09:10:57;;;;;;;9.75;5.18;;;20.10;99.90;;;;;;4958064;28;20185;-79
2022/09/15 09:13:46;;;;;;;13.70;4.72;;;20.20;99.90;;;;;;4946152;28;20601;-80
2022/09/15 09:16:25;;;;;;;8.95;3.20;;;20.40;99.90;;;;;;4946696;28;20446;-80
2022/09/15 09:19:15;;;;;;;11.02;2.83;;;20.60;99.90;;;;;;4962454;28;20556;-80
2022/09/15 09:21:45;;;;;;;7.97;2.03;;;20.60;99.90;;;;;;4940686;28;20049;-80
2022/09/15 09:24:15;;;;;;;9.65;2.42;;;20.90;99.90;;;;;;4944422;28;20059;-81
2022/09/15 09:26:41;;;;;;;9.60;1.95;;;21.00;99.90;;;;;;4949804;28;20060;-81
2022/09/15 09:29:19;;;;;;;5.78;1.70;;;21.00;99.90;;;;;;4965327;28;20118;-81
2022/09/15 09:31:49;;;;;;;7.63;1.90;;;21.10;99.90;;;;;;4961116;28;20079;-80
2022/09/15 09:34:32;;;;;;;6.03;1.63;;;21.10;99.90;;;;;;4957742;28;20038;-80
2022/09/15 09:36:59;;;;;;;9.40;1.50;;;21.10;99.90;;;;;;4962508;28;20035;-81
2022/09/15 09:39:25;;;;;;;5.28;1.63;;;21.40;99.90;;;;;;4960556;28;20035;-81
2022/09/15 09:41:51;;;;;;;3.30;1.15;;;21.60;99.90;;;;;;4943941;28;20085;-81
2022/09/15 09:44:16;;;;;;;7.97;1.73;;;21.60;99.90;;;;;;4962110;28;20454;-81
2022/09/15 09:46:43;;;;;;;8.77;1.55;;;21.60;99.90;;;;;;4944644;28;20038;-81
2022/09/15 09:49:11;;;;;;;7.70;1.58;;;21.60;99.90;;;;;;4929103;28;20682;-82
2022/09/15 09:51:52;;;;;;;6.97;1.30;;;21.70;99.90;;;;;;4961178;28;20046;-81
2022/09/15 09:54:20;;;;;;;5.32;1.52;;;21.90;99.90;;;;;;4957206;28;20122;-81
2022/09/15 09:56:47;;;;;;;4.40;1.05;;;22.00;99.90;;;;;;4949632;28;20120;-81
2022/09/15 09:59:37;;;;;;;10.27;1.63;;;22.20;99.90;;;;;;4947559;28;20027;-81
2022/09/15 10:02:06;;;;;;;3.58;1.58;;;22.20;99.90;;;;;;4962785;28;20027;-81
2022/09/15 10:04:32;;;;;;;5.68;1.25;;;22.40;99.90;;;;;;4962997;28;20030;-82
2022/09/15 10:06:58;;;;;;;5.75;1.20;;;22.40;99.90;;;;;;4946897;28;20540;-82
2022/09/15 10:09:23;;;;;;;7.93;1.42;;;22.50;99.90;;;;;;4946463;28;20452;-82
2022/09/15 10:11:52;;;;;;;4.15;1.08;;;22.50;99.90;;;;;;4957654;28;20079;-81
2022/09/15 10:14:21;;;;;;;3.63;1.20;;;22.60;99.90;;;;;;4960712;28;20141;-80
2022/09/15 10:17:04;;;;;;;4.32;1.20;;;22.60;99.90;;;;;;4957450;28;20027;-81
2022/09/15 10:19:31;;;;;;;6.20;1.40;;;22.60;99.90;;;;;;4942122;28;20471;-82
2022/09/15 10:21:58;;;;;;;5.63;1.40;;;22.80;99.90;;;;;;4928782;28;20038;-80
2022/09/15 10:24:34;;;;;;;8.23;1.60;;;22.90;99.90;;;;;;4605118;28;10000259;-81
2022/09/15 10:27:17;;;;;;;4.28;1.23;;;23.00;99.90;;;;;;4957469;28;20069;-80
2022/09/15 10:29:43;;;;;;;6.80;1.42;;;23.00;99.90;;;;;;4957796;28;20031;-82
2022/09/15 10:32:21;;;;;;;2.38;1.10;;;23.10;99.90;;;;;;4956277;28;20035;-79
2022/09/15 10:34:47;;;;;;;7.30;1.25;;;23.20;99.90;;;;;;4955042;28;20039;-82
2022/09/15 10:37:20;;;;;;;4.47;0.93;;;23.30;99.90;;;;;;4955637;28;20043;-82
2022/09/15 10:39:47;;;;;;;5.10;1.33;;;23.40;99.90;;;;;;4923919;28;20042;-81
2022/09/15 10:42:20;;;;;;;5.45;1.67;;;23.50;99.90;;;;;;4959805;28;20041;-81
2022/09/15 10:45:25;;;;;;;4.93;1.25;;;23.60;99.90;;;;;;4942817;28;20038;-82
2022/09/15 10:48:05;;;;;;;5.20;1.30;;;23.50;99.90;;;;;;4935074;28;20030;-82
2022/09/15 10:51:08;;;;;;;7.65;2.00;;;23.50;99.90;;;;;;4957886;28;20496;-82
2022/09/15 10:53:40;;;;;;;6.90;1.70;;;23.40;99.90;;;;;;4972998;28;20039;-82
2022/09/15 10:56:26;;;;;;;4.68;1.30;;;23.20;99.90;;;;;;4958811;28;20474;-82
2022/09/15 10:59:22;;;;;;;5.18;1.50;;;23.20;99.90;;;;;;4946269;28;20039;-82
2022/09/15 11:02:02;;;;;;;7.68;2.08;;;22.90;99.90;;;;;;4975111;28;20506;-82
2022/09/15 11:04:47;;;;;;;7.82;1.60;;;22.80;99.90;;;;;;4957762;28;20100;-83
2022/09/15 11:07:18;;;;;;;5.10;1.65;;;22.60;99.90;;;;;;4962444;28;20491;-82
2022/09/15 11:09:51;;;;;;;4.22;1.45;;;22.40;99.90;;;;;;4960536;28;20109;-82
2022/09/15 11:12:46;;;;;;;2.47;0.85;;;22.20;99.90;;;;;;4945728;28;20034;-81
2022/09/15 11:15:32;;;;;;;8.60;1.00;;;21.80;99.90;;;;;;4951606;28;20058;-83
2022/09/15 11:18:03;;;;;;;3.20;1.05;;;21.50;99.90;;;;;;4960124;28;20027;-82
2022/09/15 11:20:53;;;;;;;3.63;1.00;;;21.10;99.90;;;;;;4955667;28;20589;-82
2022/09/15 11:23:51;;;;;;;5.65;0.95;;;20.50;99.90;;;;;;4955681;28;20398;-82
2022/09/15 11:26:32;;;;;;;5.07;0.88;;;19.80;99.90;;;;;;4962410;28;20042;-82
2022/09/15 11:29:02;;;;;;;4.57;1.00;;;19.30;99.90;;;;;;4937454;28;20121;-82
2022/09/15 11:31:33;;;;;;;4.57;1.35;;;19.00;99.90;;;;;;4926838;28;20439;-82
2022/09/15 11:34:33;;;;;;;6.97;1.00;;;18.70;99.90;;;;;;4934902;28;20054;-82
2022/09/15 11:37:09;;;;;;;3.10;0.70;;;18.30;99.90;;;;;;4942182;28;20031;-81
2022/09/15 11:39:59;;;;;;;2.83;0.93;;;18.10;99.90;;;;;;4929027;28;20057;-82
2022/09/15 11:42:30;;;;;;;7.10;0.95;;;17.90;99.90;;;;;;4954508;28;20027;-81
2022/09/15 11:44:56;;;;;;;3.15;0.80;;;17.80;99.90;;;;;;4947740;28;20023;-82
2022/09/15 11:47:48;;;;;;;6.43;0.80;;;17.70;99.90;;;;;;4962973;28;20480;-81
2022/09/15 11:50:18;;;;;;;2.53;0.88;;;17.80;99.90;;;;;;4961761;28;20142;-82
2022/09/15 11:52:51;;;;;;;3.33;0.95;;;17.80;99.90;;;;;;4958795;28;20035;-81
2022/09/15 11:55:36;;;;;;;3.20;0.80;;;17.90;99.90;;;;;;4950790;28;20182;-81
2022/09/15 11:58:17;;;;;;;1.23;0.77;;;18.00;99.90;;;;;;4958429;28;20031;-82
2022/09/15 12:00:59;;;;;;;2.58;0.82;;;18.20;99.90;;;;;;4963881;28;20096;-82
2022/09/15 12:03:32;;;;;;;5.30;1.00;;;18.30;99.90;;;;;;4949902;28;20049;-81
2022/09/15 12:06:01;;;;;;;2.58;0.85;;;18.50;99.90;;;;;;4962078;28;20147;-82
2022/09/15 12:08:34;;;;;;;8.88;1.58;;;18.60;99.90;;;;;;4931999;28;20462;-82
2022/09/15 12:11:01;;;;;;;9.43;1.65;;;18.70;99.90;;;;;;4961857;28;20031;-82
2022/09/15 12:13:27;;;;;;;7.50;1.80;;;18.90;99.90;;;;;;4927788;28;20038;-82
2022/09/15 12:15:52;;;;;;;2.75;1.10;;;19.10;99.90;;;;;;4950165;28;20031;-82
2022/09/15 12:18:31;;;;;;;3.88;1.30;;;19.30;99.90;;;;;;4943460;28;20062;-82
2022/09/15 12:21:27;;;;;;;4.78;1.20;;;19.40;99.90;;;;;;4951402;28;20467;-82
2022/09/15 12:24:15;;;;;;;3.47;1.15;;;19.70;99.90;;;;;;4961749;28;20063;-82
2022/09/15 12:26:42;;;;;;;5.43;1.33;;;19.90;99.90;;;;;;4932170;28;20038;-82
2022/09/15 12:29:25;;;;;;;6.50;2.00;;;20.00;99.90;;;;;;4940640;28;20541;-82
2022/09/15 12:32:15;;;;;;;4.53;1.90;;;20.10;99.90;;;;;;4963662;28;20108;-84
2022/09/15 12:34:55;;;;;;;5.72;1.40;;;20.00;99.90;;;;;;4957757;28;20035;-81
2022/09/15 12:37:23;;;;;;;7.70;2.75;;;20.00;99.90;;;;;;4949555;28;20034;-83
2022/09/15 12:39:48;;;;;;;6.13;2.13;;;20.00;99.90;;;;;;4954588;28;20067;-80
2022/09/15 12:42:25;;;;;;;8.80;2.03;;;20.00;99.90;;;;;;4927999;28;20031;-81
2022/09/15 12:45:06;;;;;;;6.63;2.25;;;20.00;99.90;;;;;;4956744;28;20508;-82
2022/09/15 12:47:40;;;;;;;7.38;2.13;;;19.90;99.90;;;;;;4955374;28;20054;-83
2022/09/15 12:50:14;;;;;;;4.97;1.58;;;19.90;99.90;;;;;;4936638;28;20126;-83
2022/09/15 12:53:00;;;;;;;9.52;2.78;;;19.80;99.90;;;;;;4954940;28;20134;-83
2022/09/15 12:55:33;;;;;;;4.53;1.67;;;19.70;99.90;;;;;;4963628;28;20039;-83